Portada
METAR-TAF:

METAR-TAF

Aeroports :

Narathiwat, Tailàndia

latitud: 6-31-12N, longitud: 101-44-36E, altitud: 5 m

Observació

L'informe es va fer fa 1 hora i 7 minuts, a les 08:00 UTC
Vent 8 kt del Est, variant entre Nord-Est i Sud-Est
Temperatura 30°C
Humitat 79%
Pressió 1008 hPa
Visibilitat 10 km o més
Escasses núvols a una alçada de 2000 ft

METAR: VTSC 060800Z 10008KT 040V130 9999 FEW020 30/26 Q1008 NOSIG

Hora: 16:07 (09:07 UTC)

Pronòstic

L'informe es va fer fa 4 hores i 7 minuts, a les 05:00 UTC
Pronòstic vàlid del 06 a les 06 UTC al 07 a les 06 UTC
Vent 8 kt del Est/Sud-Est
Visibilitat 10 km o més
Escasses núvols a una alçada de 2000 ft

TAF: VTSC 060500Z 0606/0706 12008KT 9999 FEW020

Observacions i pronòstics meteorològics de més de 4000 aeroports (METAR i TAF).

Les estacions disponibles són els punts grocs i vermells al mapa.

Posi el ratolí al punt desitjat per veure el nom de l'estació.

Feu clic per veure les observacions i els pronòstics meteorològics.

Per canviar el mapa: feu clic els botons verds amb una creu de color negre per apropar; al botó verd amb un guió per allunyar la imatge; o en les fletxes verdes per a mapes adjacents.


METAR-TAF: